• Join FlightAware (Why Join?)
  • Login
  • US Flag 
06:11PM EDT


 

Airport Tracker/Info


-or-


 

Live Flight TrackerFlight Track Log ✈ AFR1527 ✈ 26-Oct-2013 ✈ LIPZ / VCE - LFPG / CDG

Flight Track Log - Related Links

Times and Time Zones

All times are in EDT time to prevent confusion due to time zone crossing. See the AFR1527 flight status page for this flight to view local times or setup timezone preferences in your user account.

Time Position Orientation Groundspeed Altitude Reporting Facility
EDT Latitude Longitude Course Direction KTS MPH feet Rate Location/Type
02:30PM 45.5270 12.3830 45° Northeast 141 162 1,500  Level FlightAware
02:31PM 45.5490 12.4130 44° Northeast 185 213 2,400 1,320 Climbing FlightAware
02:31PM 45.5660 12.4250 26° Northeast 212 244 2,900 1,920 Climbing FlightAware
02:32PM 45.5920 12.3870 314° West 262 302 4,300 2,760 Climbing FlightAware
02:33PM 45.5950 12.3300 274° West 274 315 6,100 3,120 Climbing FlightAware
02:33PM 45.5990 12.2680 275° West 292 336 7,700 3,240 Climbing FlightAware
02:34PM 45.6040 12.1980 276° West 283 326 10,000 3,420 Climbing FlightAware
02:34PM 45.6080 12.1370 275° West 289 333 11,700 2,760 Climbing FlightAware
02:35PM 45.6110 12.0910 275° West 305 351 12,600 2,220 Climbing FlightAware
02:35PM 45.6160 12.0190 276° West 322 371 13,900 2,340 Climbing FlightAware
02:36PM 45.6190 11.9590 274° West 329 379 15,100 2,640 Climbing FlightAware
02:36PM 45.6250 11.8680 275° West 335 386 17,000 2,700 Climbing FlightAware
02:37PM 45.6300 11.7990 276° West 344 396 18,300 2,520 Climbing FlightAware
02:37PM 45.6340 11.7350 275° West 353 406 19,500 2,580 Climbing FlightAware
02:38PM 45.6390 11.5830 273° West 365 420 22,300 2,460 Climbing FlightAware
02:40PM 45.6410 11.4240 271° West 375 432 24,900 1,980 Climbing FlightAware
02:41PM 45.6422 11.2908 271° West 390 449 27,700 1,680 Climbing FlightAware ADS-B (KFFO)
02:42PM 45.6438 11.1178 271° West 396 456 29,500 1,920 Climbing FlightAware ADS-B (KFFO)
02:43PM 45.6460 10.8390 271° West 408 470 31,900 1,500 Climbing FlightAware
02:44PM 45.6470 10.7310 271° West 431 496 32,100 1,320 Climbing FlightAware
02:45PM 45.6550 10.6400 277° West 420 483 33,500 1,860 Climbing FlightAware
02:45PM 45.6680 10.5410 281° West 421 484 34,300 1,380 Climbing FlightAware
02:46PM 45.6790 10.4580 281° West 420 483 35,100 1,560 Climbing FlightAware
02:46PM 45.6920 10.3590 281° West 416 479 36,100 1,560 Climbing FlightAware
02:47PM 45.7040 10.2600 280° West 412 474 37,000 1,140 Climbing FlightAware
02:48PM 45.7180 10.1530 281° West 414 476 37,600 780 Climbing FlightAware
02:48PM 45.7300 10.0580 280° West 411 473 38,000 240 Climbing FlightAware
02:49PM 45.7510 9.8960 281° West 410 472 38,000  Level FlightAware
02:50PM 45.7710 9.7310 280° West 411 473 38,000  Level FlightAware
02:51PM 45.7800 9.6600 280° West 411 473 38,000  Level FlightAware
02:51PM 45.7910 9.5650 279° West 408 470 38,000  Level FlightAware
02:52PM 45.8030 9.4670 280° West 405 466 38,000  Level FlightAware
02:52PM 45.8150 9.3700 280° West 402 463 38,000  Level FlightAware
02:53PM 45.8280 9.2560 279° West 400 460 38,000  Level FlightAware
02:54PM 45.8360 9.1950 281° West 399 459 38,000  Level FlightAware
02:54PM 45.8490 9.0770 279° West 398 458 38,000  Level FlightAware
02:55PM 45.8600 8.9910 280° West 399 459 38,000  Level FlightAware
02:55PM 45.8690 8.9080 279° West 398 458 38,000  Level FlightAware
02:56PM 45.8800 8.8110 279° West 398 458 38,000  Level FlightAware
02:57PM 45.8960 8.6710 279° West 398 458 38,000  Level FlightAware
02:57PM 45.9030 8.6100 279° West 399 459 38,000  Level FlightAware
02:58PM 45.9150 8.5090 280° West 399 459 38,000  Level FlightAware
02:59PM 45.9310 8.4180 284° West 408 470 38,000  Level FlightAware
02:59PM 45.9590 8.3280 294° West 410 472 38,000  Level FlightAware
03:00PM 45.9870 8.2420 295° West 410 472 38,000  Level FlightAware
03:00PM 46.0200 8.1370 294° West 412 474 38,000  Level FlightAware
03:01PM 46.0500 8.0430 295° West 414 476 38,000  Level FlightAware
03:02PM 46.0780 7.9510 294° West 416 479 38,000  Level FlightAware
03:02PM 46.1050 7.8690 295° West 417 480 38,000  Level FlightAware
03:03PM 46.1320 7.7810 294° West 417 480 38,000  Level FlightAware
03:03PM 46.1610 7.6900 295° West 416 479 38,000  Level FlightAware
03:04PM 46.2030 7.5570 295° West 412 474 38,000  Level FlightAware
03:05PM 46.2510 7.4010 294° West 408 470 38,000 -60 Level FlightAware
03:06PM 46.2820 7.3030 295° West 408 470 37,900 -120 Descending FlightAware
03:07PM 46.3160 7.2010 296° West 414 476 37,900 60 Level FlightAware
03:07PM 46.3450 7.1190 297° West 415 478 38,000 60 Climbing FlightAware
03:08PM 46.3720 7.0400 296° West 417 480 38,000 60 Level FlightAware
03:09PM 46.4190 6.9040 297° West 418 481 38,100 60 Climbing FlightAware
03:09PM 46.4390 6.8460 297° West 416 479 38,100 -120 Level FlightAware
03:10PM 46.4710 6.7540 297° West 415 478 38,000 -120 Descending FlightAware
03:11PM 46.5160 6.6200 296° West 409 471 38,000  Level FlightAware
03:11PM 46.5350 6.5660 297° West 408 470 38,000  Level FlightAware
03:12PM 46.5660 6.4750 296° West 408 470 38,000 -120 Level FlightAware
03:12PM 46.6070 6.3530 296° West 408 470 37,900  Descending FlightAware
03:13PM 46.6310 6.2820 296° West 410 472 38,000 60 Climbing FlightAware
03:14PM 46.6790 6.1400 296° West 414 476 38,000  Level FlightAware
03:14PM 46.7020 6.0700 296° West 415 478 38,000  Level FlightAware
03:15PM 46.7530 5.9150 296° West 416 479 38,000  Level FlightAware
03:16PM 46.7950 5.8030 299° West 421 484 38,000  Level FlightAware
03:17PM 46.8440 5.7320 315° West 441 507 38,000  Level FlightAware
03:18PM 46.9380 5.6250 322° Northwest 436 502 38,000  Level FlightAware
03:18PM 46.9930 5.5610 322° Northwest 435 501 38,000 -60 Level FlightAware
03:19PM 47.0970 5.4410 322° Northwest 438 504 37,900  Descending FlightAware
03:20PM 47.1530 5.3760 322° Northwest 439 505 38,000 60 Climbing FlightAware
03:21PM 47.2450 5.2680 321° Northwest 442 509 38,000 -300 Level FlightAware
03:22PM 47.3470 5.1500 322° Northwest 443 510 37,500 -660 Descending FlightAware
03:22PM 47.3980 5.0920 322° Northwest 436 502 37,000 -960 Descending FlightAware
03:23PM 47.4570 5.0240 322° Northwest 427 491 36,400 -1,020 Descending FlightAware
03:24PM 47.5120 4.9600 322° Northwest 431 496 35,800 -1,020 Descending FlightAware
03:25PM 47.6200 4.8330 322° Northwest 450 518 34,700 -1,020 Descending FlightAware
03:25PM 47.6820 4.7610 322° Northwest 447 514 34,100 -960 Descending FlightAware
03:26PM 47.7340 4.7000 322° Northwest 449 517 33,600 -1,440 Descending FlightAware
03:26PM 47.7830 4.6410 321° Northwest 451 519 32,600 -2,460 Descending FlightAware
03:28PM 47.9070 4.4950 322° Northwest 444 511 29,300 -2,640 Descending FlightAware
03:28PM 47.9620 4.4290 321° Northwest 440 506 27,800 -2,100 Descending FlightAware
03:29PM 48.0220 4.3580 322° Northwest 416 479 26,800 -1,800 Descending FlightAware
03:30PM 48.0750 4.2940 321° Northwest 406 467 25,600 -2,340 Descending FlightAware
03:30PM 48.1340 4.2240 322° Northwest 403 464 23,900 -2,460 Descending FlightAware
03:31PM 48.2190 4.1210 321° Northwest 396 456 21,600 -2,280 Descending FlightAware
03:32PM 48.2720 4.0580 322° Northwest 390 449 20,300 -1,380 Descending FlightAware
03:32PM 48.3130 4.0000 317° Northwest 374 430 20,000 -300 Descending FlightAware
03:33PM 48.3440 3.9430 309° West 364 419 20,000 -1,020 Level FlightAware
03:34PM 48.4320 3.8130 316° Northwest 392 451 18,400 -2,340 Descending FlightAware
03:35PM 48.5270 3.6830 318° Northwest 370 426 14,700 -3,480 Descending FlightAware
03:36PM 48.5640 3.6290 316° Northwest 360 414 12,600 -3,480 Descending FlightAware
03:36PM 48.6090 3.5670 318° Northwest 367 422 10,800 -1,800 Descending FlightAware
03:37PM 48.6610 3.5210 330° Northwest 337 388 10,500 -720 Descending FlightAware
03:37PM 48.7070 3.4810 330° Northwest 313 360 10,000 -1,080 Descending FlightAware
03:38PM 48.7560 3.4370 329° Northwest 304 350 9,200 -1,200 Descending FlightAware
03:39PM 48.7920 3.4070 331° Northwest 294 338 8,600 -1,140 Descending FlightAware
03:39PM 48.8250 3.3770 329° Northwest 285 328 8,100 -1,140 Descending FlightAware
03:40PM 48.8520 3.3530 330° Northwest 282 325 7,600 -1,020 Descending FlightAware
03:40PM 48.9000 3.3070 328° Northwest 279 321 7,000 -840 Descending FlightAware
03:41PM 48.9430 3.2650 327° Northwest 277 319 6,500 -960 Descending FlightAware
03:41PM 48.9780 3.2300 327° Northwest 274 315 5,900 -1,200 Descending FlightAware
03:42PM 48.9990 3.1870 307° West 254 292 5,300 -1,080 Descending FlightAware
03:42PM 49.0160 3.1340 296° West 230 265 4,800 -840 Descending FlightAware
03:43PM 49.0190 3.0970 277° West 211 243 4,500 -660 Descending FlightAware
03:44PM 49.0170 3.0330 267° West 209 241 4,100 -360 Descending FlightAware
03:44PM 49.0150 2.9840 266° West 206 237 4,100  Level FlightAware
03:45PM 49.0110 2.9200 265° West 181 208 4,100 -180 Level FlightAware
03:45PM 49.0090 2.8810 266° West 165 190 3,900 -600 Descending FlightAware
03:46PM 49.0080 2.8490 267° West 164 189 3,500 -840 Descending FlightAware
03:46PM 49.0060 2.8120 265° West 166 191 3,100 -900 Descending FlightAware
03:47PM 49.0040 2.7750 265° West 158 182 2,600 -900 Descending FlightAware
03:48PM 49.0020 2.7340 266° West 142 163 2,100 -780 Descending FlightAware
03:48PM 49.0000 2.7030 264° West 116 133 1,700 -660 Descending FlightAware
03:49PM 48.9990 2.6770 267° West 119 137 1,400 -660 Descending FlightAware
03:49PM 48.9980 2.6560 266° West 121 139 1,100 -660 Descending FlightAware
03:50PM 48.9960 2.6310 263° West 120 138 800 -660 Descending FlightAware
03:50PM 48.9950 2.6020 267° West 121 139 400 -660 Descending FlightAware